sensor_id;sensor_type;location;lat;lon;timestamp;temperature;humidity
43320;DHT22;28914;48.722;9.332;2023-03-08T00:02:03;8.40;53.10
43320;DHT22;28914;48.722;9.332;2023-03-08T00:07:22;8.30;53.20
43320;DHT22;28914;48.722;9.332;2023-03-08T00:12:41;8.10;53.30
43320;DHT22;28914;48.722;9.332;2023-03-08T00:18:00;8.10;53.70
43320;DHT22;28914;48.722;9.332;2023-03-08T00:23:19;8.00;53.70
43320;DHT22;28914;48.722;9.332;2023-03-08T00:28:39;8.00;53.90
43320;DHT22;28914;48.722;9.332;2023-03-08T00:33:58;8.10;54.10
43320;DHT22;28914;48.722;9.332;2023-03-08T00:39:18;8.10;54.00
43320;DHT22;28914;48.722;9.332;2023-03-08T00:44:37;8.10;54.10
43320;DHT22;28914;48.722;9.332;2023-03-08T00:49:56;8.20;54.20
43320;DHT22;28914;48.722;9.332;2023-03-08T00:55:15;8.20;54.30
43320;DHT22;28914;48.722;9.332;2023-03-08T01:00:35;8.30;54.30
43320;DHT22;28914;48.722;9.332;2023-03-08T01:05:55;8.30;54.30
43320;DHT22;28914;48.722;9.332;2023-03-08T01:11:25;8.30;54.30
43320;DHT22;28914;48.722;9.332;2023-03-08T01:16:45;8.20;54.20
43320;DHT22;28914;48.722;9.332;2023-03-08T01:22:04;8.20;54.20
43320;DHT22;28914;48.722;9.332;2023-03-08T01:27:23;8.10;54.30
43320;DHT22;28914;48.722;9.332;2023-03-08T01:32:43;8.00;54.30
43320;DHT22;28914;48.722;9.332;2023-03-08T01:38:02;7.90;54.30
43320;DHT22;28914;48.722;9.332;2023-03-08T01:43:27;7.90;54.50
43320;DHT22;28914;48.722;9.332;2023-03-08T01:54:28;7.70;54.60
43320;DHT22;28914;48.722;9.332;2023-03-08T01:59:49;7.60;54.70
43320;DHT22;28914;48.722;9.332;2023-03-08T02:05:09;7.40;54.80
43320;DHT22;28914;48.722;9.332;2023-03-08T02:10:29;7.30;54.90
43320;DHT22;28914;48.722;9.332;2023-03-08T02:15:50;7.10;55.10
43320;DHT22;28914;48.722;9.332;2023-03-08T02:21:09;6.90;55.40
43320;DHT22;28914;48.722;9.332;2023-03-08T02:26:28;6.70;55.70
43320;DHT22;28914;48.722;9.332;2023-03-08T02:31:48;6.50;56.00
43320;DHT22;28914;48.722;9.332;2023-03-08T02:37:07;6.40;56.30
43320;DHT22;28914;48.722;9.332;2023-03-08T02:42:26;6.30;56.60
43320;DHT22;28914;48.722;9.332;2023-03-08T02:47:45;6.20;57.10
43320;DHT22;28914;48.722;9.332;2023-03-08T02:53:05;6.10;57.30
43320;DHT22;28914;48.722;9.332;2023-03-08T02:58:24;6.10;57.50
43320;DHT22;28914;48.722;9.332;2023-03-08T03:03:43;6.00;57.80
43320;DHT22;28914;48.722;9.332;2023-03-08T03:09:09;6.10;58.60
43320;DHT22;28914;48.722;9.332;2023-03-08T03:14:29;6.10;58.60
43320;DHT22;28914;48.722;9.332;2023-03-08T03:19:48;6.00;59.40
43320;DHT22;28914;48.722;9.332;2023-03-08T03:25:08;6.00;59.30
43320;DHT22;28914;48.722;9.332;2023-03-08T03:30:27;6.10;59.00
43320;DHT22;28914;48.722;9.332;2023-03-08T03:35:46;6.10;58.80
43320;DHT22;28914;48.722;9.332;2023-03-08T03:41:24;6.20;58.80
43320;DHT22;28914;48.722;9.332;2023-03-08T03:46:43;6.30;59.10
43320;DHT22;28914;48.722;9.332;2023-03-08T03:52:02;6.30;58.70
43320;DHT22;28914;48.722;9.332;2023-03-08T03:57:22;6.40;58.90
43320;DHT22;28914;48.722;9.332;2023-03-08T04:02:41;6.40;58.90
43320;DHT22;28914;48.722;9.332;2023-03-08T04:08:00;6.50;58.70
43320;DHT22;28914;48.722;9.332;2023-03-08T04:13:19;6.50;58.70
43320;DHT22;28914;48.722;9.332;2023-03-08T04:18:39;6.60;58.70
43320;DHT22;28914;48.722;9.332;2023-03-08T04:23:59;6.60;58.70
43320;DHT22;28914;48.722;9.332;2023-03-08T04:29:18;6.60;58.70
43320;DHT22;28914;48.722;9.332;2023-03-08T04:34:38;6.60;58.80
43320;DHT22;28914;48.722;9.332;2023-03-08T04:39:57;6.60;58.80
43320;DHT22;28914;48.722;9.332;2023-03-08T04:45:16;6.50;58.80
43320;DHT22;28914;48.722;9.332;2023-03-08T04:50:35;6.50;59.00
43320;DHT22;28914;48.722;9.332;2023-03-08T04:55:54;6.50;59.00
43320;DHT22;28914;48.722;9.332;2023-03-08T05:01:15;6.60;59.20
43320;DHT22;28914;48.722;9.332;2023-03-08T05:06:35;6.60;59.30
43320;DHT22;28914;48.722;9.332;2023-03-08T05:11:54;6.60;59.30
43320;DHT22;28914;48.722;9.332;2023-03-08T05:17:13;6.60;59.20
43320;DHT22;28914;48.722;9.332;2023-03-08T05:22:32;6.70;59.20
43320;DHT22;28914;48.722;9.332;2023-03-08T05:27:52;6.70;59.20
43320;DHT22;28914;48.722;9.332;2023-03-08T05:33:12;6.80;59.30
43320;DHT22;28914;48.722;9.332;2023-03-08T05:38:31;6.90;59.40
43320;DHT22;28914;48.722;9.332;2023-03-08T05:43:52;6.90;59.50
43320;DHT22;28914;48.722;9.332;2023-03-08T05:49:10;6.90;59.70
43320;DHT22;28914;48.722;9.332;2023-03-08T05:54:30;7.00;59.60
43320;DHT22;28914;48.722;9.332;2023-03-08T05:59:49;7.00;59.50
43320;DHT22;28914;48.722;9.332;2023-03-08T06:05:08;7.10;59.60
43320;DHT22;28914;48.722;9.332;2023-03-08T06:10:28;7.10;59.30
43320;DHT22;28914;48.722;9.332;2023-03-08T06:15:47;7.20;59.30
43320;DHT22;28914;48.722;9.332;2023-03-08T06:21:11;7.20;59.40
43320;DHT22;28914;48.722;9.332;2023-03-08T06:26:31;7.30;59.50
43320;DHT22;28914;48.722;9.332;2023-03-08T06:31:50;7.30;59.40
43320;DHT22;28914;48.722;9.332;2023-03-08T06:37:10;7.30;59.40
43320;DHT22;28914;48.722;9.332;2023-03-08T06:42:29;7.40;59.40
43320;DHT22;28914;48.722;9.332;2023-03-08T06:47:48;7.40;59.30
43320;DHT22;28914;48.722;9.332;2023-03-08T06:53:08;7.50;59.40
43320;DHT22;28914;48.722;9.332;2023-03-08T06:58:28;7.50;59.40
43320;DHT22;28914;48.722;9.332;2023-03-08T07:03:48;7.60;59.40
43320;DHT22;28914;48.722;9.332;2023-03-08T07:09:08;7.70;59.30
43320;DHT22;28914;48.722;9.332;2023-03-08T07:14:27;7.90;59.30
43320;DHT22;28914;48.722;9.332;2023-03-08T07:19:46;8.00;59.20
43320;DHT22;28914;48.722;9.332;2023-03-08T07:25:05;8.10;58.90
43320;DHT22;28914;48.722;9.332;2023-03-08T07:30:25;8.20;58.50
43320;DHT22;28914;48.722;9.332;2023-03-08T07:35:44;8.30;58.40
43320;DHT22;28914;48.722;9.332;2023-03-08T07:41:04;8.40;58.60
43320;DHT22;28914;48.722;9.332;2023-03-08T07:46:23;8.60;58.60
43320;DHT22;28914;48.722;9.332;2023-03-08T07:51:42;8.70;58.50
43320;DHT22;28914;48.722;9.332;2023-03-08T07:57:01;8.90;58.30
43320;DHT22;28914;48.722;9.332;2023-03-08T08:02:21;9.00;58.10
43320;DHT22;28914;48.722;9.332;2023-03-08T08:07:40;9.10;58.50
43320;DHT22;28914;48.722;9.332;2023-03-08T08:12:59;9.20;57.90
43320;DHT22;28914;48.722;9.332;2023-03-08T08:18:18;9.20;57.80
43320;DHT22;28914;48.722;9.332;2023-03-08T08:23:39;9.20;57.80
43320;DHT22;28914;48.722;9.332;2023-03-08T08:28:58;9.30;58.50
43320;DHT22;28914;48.722;9.332;2023-03-08T08:34:19;9.30;57.90
43320;DHT22;28914;48.722;9.332;2023-03-08T08:39:38;9.40;58.00
43320;DHT22;28914;48.722;9.332;2023-03-08T08:44:57;9.40;58.00
43320;DHT22;28914;48.722;9.332;2023-03-08T08:50:16;9.50;58.10
43320;DHT22;28914;48.722;9.332;2023-03-08T08:55:35;9.70;58.90
43320;DHT22;28914;48.722;9.332;2023-03-08T09:00:55;9.80;58.80
43320;DHT22;28914;48.722;9.332;2023-03-08T09:06:16;9.90;58.60
43320;DHT22;28914;48.722;9.332;2023-03-08T09:11:35;10.00;58.70
43320;DHT22;28914;48.722;9.332;2023-03-08T09:16:54;10.10;59.00
43320;DHT22;28914;48.722;9.332;2023-03-08T09:22:14;10.20;59.10
43320;DHT22;28914;48.722;9.332;2023-03-08T09:27:33;10.20;59.00
43320;DHT22;28914;48.722;9.332;2023-03-08T09:32:52;10.30;59.10
43320;DHT22;28914;48.722;9.332;2023-03-08T09:38:11;10.30;59.30
43320;DHT22;28914;48.722;9.332;2023-03-08T09:49:32;10.40;59.50
43320;DHT22;28914;48.722;9.332;2023-03-08T09:54:53;10.40;59.60
43320;DHT22;28914;48.722;9.332;2023-03-08T10:00:34;10.50;59.60
43320;DHT22;28914;48.722;9.332;2023-03-08T10:12:08;10.70;59.90
43320;DHT22;28914;48.722;9.332;2023-03-08T10:17:57;10.90;60.00
43320;DHT22;28914;48.722;9.332;2023-03-08T10:23:19;11.00;59.90
43320;DHT22;28914;48.722;9.332;2023-03-08T10:28:39;11.20;59.80
43320;DHT22;28914;48.722;9.332;2023-03-08T10:34:13;11.50;59.50
43320;DHT22;28914;48.722;9.332;2023-03-08T10:39:35;11.60;59.30
43320;DHT22;28914;48.722;9.332;2023-03-08T10:44:58;11.90;59.10
43320;DHT22;28914;48.722;9.332;2023-03-08T10:50:21;11.90;58.80
43320;DHT22;28914;48.722;9.332;2023-03-08T10:55:50;12.20;58.90
43320;DHT22;28914;48.722;9.332;2023-03-08T11:01:30;12.40;59.10
43320;DHT22;28914;48.722;9.332;2023-03-08T11:06:51;12.80;60.90
43320;DHT22;28914;48.722;9.332;2023-03-08T11:12:21;13.10;60.80
43320;DHT22;28914;48.722;9.332;2023-03-08T11:17:51;13.40;61.40
43320;DHT22;28914;48.722;9.332;2023-03-08T11:23:28;13.70;62.10
43320;DHT22;28914;48.722;9.332;2023-03-08T11:34:46;14.40;62.20
43320;DHT22;28914;48.722;9.332;2023-03-08T11:40:21;14.90;61.80
43320;DHT22;28914;48.722;9.332;2023-03-08T11:46:00;15.20;61.70
43320;DHT22;28914;48.722;9.332;2023-03-08T11:51:59;15.50;62.20
43320;DHT22;28914;48.722;9.332;2023-03-08T11:57:24;15.90;60.80
43320;DHT22;28914;48.722;9.332;2023-03-08T12:02:46;16.30;60.20
43320;DHT22;28914;48.722;9.332;2023-03-08T12:13:45;16.70;59.30
43320;DHT22;28914;48.722;9.332;2023-03-08T12:19:25;16.80;58.70
43320;DHT22;28914;48.722;9.332;2023-03-08T12:30:27;16.90;58.60
43320;DHT22;28914;48.722;9.332;2023-03-08T12:36:03;16.90;58.50
43320;DHT22;28914;48.722;9.332;2023-03-08T12:41:26;16.90;58.60
43320;DHT22;28914;48.722;9.332;2023-03-08T12:46:53;16.90;58.80
43320;DHT22;28914;48.722;9.332;2023-03-08T12:57:47;17.10;58.80
43320;DHT22;28914;48.722;9.332;2023-03-08T13:08:39;17.50;58.60
43320;DHT22;28914;48.722;9.332;2023-03-08T13:14:00;17.70;58.30
43320;DHT22;28914;48.722;9.332;2023-03-08T13:19:25;17.90;57.90
43320;DHT22;28914;48.722;9.332;2023-03-08T13:30:23;18.00;57.50
43320;DHT22;28914;48.722;9.332;2023-03-08T13:41:15;18.00;57.50
43320;DHT22;28914;48.722;9.332;2023-03-08T13:46:36;17.90;57.60
43320;DHT22;28914;48.722;9.332;2023-03-08T13:52:04;17.80;57.50
43320;DHT22;28914;48.722;9.332;2023-03-08T13:57:34;17.80;57.60
43320;DHT22;28914;48.722;9.332;2023-03-08T14:02:55;17.70;57.90
43320;DHT22;28914;48.722;9.332;2023-03-08T14:08:20;17.70;57.70
43320;DHT22;28914;48.722;9.332;2023-03-08T14:13:45;17.70;57.80
43320;DHT22;28914;48.722;9.332;2023-03-08T14:19:33;17.80;58.00
43320;DHT22;28914;48.722;9.332;2023-03-08T14:24:55;18.00;57.70
43320;DHT22;28914;48.722;9.332;2023-03-08T14:30:23;18.00;57.60
43320;DHT22;28914;48.722;9.332;2023-03-08T14:35:51;18.10;57.50
43320;DHT22;28914;48.722;9.332;2023-03-08T14:41:11;18.00;57.10
43320;DHT22;28914;48.722;9.332;2023-03-08T14:46:33;18.00;57.20
43320;DHT22;28914;48.722;9.332;2023-03-08T14:51:53;18.00;57.20
43320;DHT22;28914;48.722;9.332;2023-03-08T14:57:22;17.90;57.10
43320;DHT22;28914;48.722;9.332;2023-03-08T15:02:42;17.80;57.30
43320;DHT22;28914;48.722;9.332;2023-03-08T15:08:02;17.90;57.60
43320;DHT22;28914;48.722;9.332;2023-03-08T15:13:22;17.90;57.90
43320;DHT22;28914;48.722;9.332;2023-03-08T15:18:42;17.90;58.00
43320;DHT22;28914;48.722;9.332;2023-03-08T15:24:01;17.90;58.10
43320;DHT22;28914;48.722;9.332;2023-03-08T15:29:27;18.00;58.20
43320;DHT22;28914;48.722;9.332;2023-03-08T15:34:46;17.90;58.20
43320;DHT22;28914;48.722;9.332;2023-03-08T15:40:09;18.00;58.60
43320;DHT22;28914;48.722;9.332;2023-03-08T15:45:29;17.80;58.40
43320;DHT22;28914;48.722;9.332;2023-03-08T15:50:48;17.80;58.50
43320;DHT22;28914;48.722;9.332;2023-03-08T15:56:08;17.70;58.50
43320;DHT22;28914;48.722;9.332;2023-03-08T16:01:27;17.60;58.50
43320;DHT22;28914;48.722;9.332;2023-03-08T16:06:46;17.50;58.50
43320;DHT22;28914;48.722;9.332;2023-03-08T16:12:05;17.50;58.70
43320;DHT22;28914;48.722;9.332;2023-03-08T16:17:28;17.30;59.10
43320;DHT22;28914;48.722;9.332;2023-03-08T16:22:47;17.30;59.10
43320;DHT22;28914;48.722;9.332;2023-03-08T16:28:09;17.20;58.90
43320;DHT22;28914;48.722;9.332;2023-03-08T16:33:28;17.20;59.10
43320;DHT22;28914;48.722;9.332;2023-03-08T16:38:47;17.10;59.70
43320;DHT22;28914;48.722;9.332;2023-03-08T16:44:15;17.00;60.20
43320;DHT22;28914;48.722;9.332;2023-03-08T16:49:35;16.80;60.70
43320;DHT22;28914;48.722;9.332;2023-03-08T16:54:55;16.70;62.10
43320;DHT22;28914;48.722;9.332;2023-03-08T17:00:15;16.60;63.10
43320;DHT22;28914;48.722;9.332;2023-03-08T17:05:39;16.40;63.20
43320;DHT22;28914;48.722;9.332;2023-03-08T17:10:58;16.20;63.20
43320;DHT22;28914;48.722;9.332;2023-03-08T17:16:21;16.10;63.20
43320;DHT22;28914;48.722;9.332;2023-03-08T17:21:40;15.90;63.70
43320;DHT22;28914;48.722;9.332;2023-03-08T17:26:59;15.80;64.60
43320;DHT22;28914;48.722;9.332;2023-03-08T17:32:19;15.70;65.80
43320;DHT22;28914;48.722;9.332;2023-03-08T17:37:38;15.60;65.80
43320;DHT22;28914;48.722;9.332;2023-03-08T17:42:59;15.50;66.60
43320;DHT22;28914;48.722;9.332;2023-03-08T17:48:20;15.50;66.70
43320;DHT22;28914;48.722;9.332;2023-03-08T17:53:40;15.40;66.90
43320;DHT22;28914;48.722;9.332;2023-03-08T17:59:00;15.30;67.50
43320;DHT22;28914;48.722;9.332;2023-03-08T18:04:19;15.20;67.40
43320;DHT22;28914;48.722;9.332;2023-03-08T18:09:40;15.20;67.90
43320;DHT22;28914;48.722;9.332;2023-03-08T18:14:58;15.10;67.80
43320;DHT22;28914;48.722;9.332;2023-03-08T18:20:19;15.10;68.20
43320;DHT22;28914;48.722;9.332;2023-03-08T18:25:39;15.00;68.60
43320;DHT22;28914;48.722;9.332;2023-03-08T18:30:58;15.00;68.70
43320;DHT22;28914;48.722;9.332;2023-03-08T18:36:18;14.90;69.60
43320;DHT22;28914;48.722;9.332;2023-03-08T18:41:38;14.90;69.70
43320;DHT22;28914;48.722;9.332;2023-03-08T18:46:58;14.80;69.50
43320;DHT22;28914;48.722;9.332;2023-03-08T18:52:17;14.70;69.50
43320;DHT22;28914;48.722;9.332;2023-03-08T18:57:36;14.70;69.60
43320;DHT22;28914;48.722;9.332;2023-03-08T19:02:55;14.60;70.90
43320;DHT22;28914;48.722;9.332;2023-03-08T19:08:14;14.50;70.10
43320;DHT22;28914;48.722;9.332;2023-03-08T19:13:33;14.50;69.90
43320;DHT22;28914;48.722;9.332;2023-03-08T19:18:55;14.50;70.10
43320;DHT22;28914;48.722;9.332;2023-03-08T19:24:17;14.50;71.30
43320;DHT22;28914;48.722;9.332;2023-03-08T19:29:36;14.40;70.40
43320;DHT22;28914;48.722;9.332;2023-03-08T19:34:56;14.40;71.20
43320;DHT22;28914;48.722;9.332;2023-03-08T19:40:15;14.40;72.10
43320;DHT22;28914;48.722;9.332;2023-03-08T19:45:35;14.30;71.60
43320;DHT22;28914;48.722;9.332;2023-03-08T19:50:54;14.30;72.00
43320;DHT22;28914;48.722;9.332;2023-03-08T19:56:16;14.20;71.70
43320;DHT22;28914;48.722;9.332;2023-03-08T20:01:36;14.20;71.80
43320;DHT22;28914;48.722;9.332;2023-03-08T20:06:58;14.20;71.80
43320;DHT22;28914;48.722;9.332;2023-03-08T20:12:18;14.10;72.20
43320;DHT22;28914;48.722;9.332;2023-03-08T20:17:37;14.10;72.10
43320;DHT22;28914;48.722;9.332;2023-03-08T20:22:56;14.10;72.30
43320;DHT22;28914;48.722;9.332;2023-03-08T20:28:16;14.00;72.20
43320;DHT22;28914;48.722;9.332;2023-03-08T20:33:36;14.00;73.00
43320;DHT22;28914;48.722;9.332;2023-03-08T20:38:56;14.00;73.20
43320;DHT22;28914;48.722;9.332;2023-03-08T20:44:15;14.00;73.30
43320;DHT22;28914;48.722;9.332;2023-03-08T20:49:35;14.00;73.20
43320;DHT22;28914;48.722;9.332;2023-03-08T20:54:54;13.90;73.30
43320;DHT22;28914;48.722;9.332;2023-03-08T21:00:13;14.00;73.70
43320;DHT22;28914;48.722;9.332;2023-03-08T21:05:34;13.90;74.40
43320;DHT22;28914;48.722;9.332;2023-03-08T21:10:56;14.00;75.20
43320;DHT22;28914;48.722;9.332;2023-03-08T21:16:18;14.00;75.30
43320;DHT22;28914;48.722;9.332;2023-03-08T21:21:40;14.00;75.20
43320;DHT22;28914;48.722;9.332;2023-03-08T21:27:00;14.00;75.70
43320;DHT22;28914;48.722;9.332;2023-03-08T21:32:19;14.00;75.80
43320;DHT22;28914;48.722;9.332;2023-03-08T21:37:38;14.00;75.70
43320;DHT22;28914;48.722;9.332;2023-03-08T21:42:57;14.00;75.90
43320;DHT22;28914;48.722;9.332;2023-03-08T21:48:17;14.00;76.10
43320;DHT22;28914;48.722;9.332;2023-03-08T21:53:36;14.00;76.60
43320;DHT22;28914;48.722;9.332;2023-03-08T21:58:55;14.00;76.70
43320;DHT22;28914;48.722;9.332;2023-03-08T22:04:15;14.10;77.30
43320;DHT22;28914;48.722;9.332;2023-03-08T22:09:34;14.20;77.20
43320;DHT22;28914;48.722;9.332;2023-03-08T22:14:54;14.20;77.00
43320;DHT22;28914;48.722;9.332;2023-03-08T22:20:13;14.20;77.00
43320;DHT22;28914;48.722;9.332;2023-03-08T22:25:32;14.30;77.20
43320;DHT22;28914;48.722;9.332;2023-03-08T22:30:51;14.30;77.50
43320;DHT22;28914;48.722;9.332;2023-03-08T22:36:12;14.30;77.70
43320;DHT22;28914;48.722;9.332;2023-03-08T22:41:32;14.30;77.80
43320;DHT22;28914;48.722;9.332;2023-03-08T22:46:51;14.30;78.20
43320;DHT22;28914;48.722;9.332;2023-03-08T22:52:11;14.20;78.20
43320;DHT22;28914;48.722;9.332;2023-03-08T22:57:30;14.10;79.60
43320;DHT22;28914;48.722;9.332;2023-03-08T23:02:49;14.10;79.10
43320;DHT22;28914;48.722;9.332;2023-03-08T23:08:08;14.00;78.70
43320;DHT22;28914;48.722;9.332;2023-03-08T23:13:27;14.00;79.20
43320;DHT22;28914;48.722;9.332;2023-03-08T23:18:48;14.00;79.20
43320;DHT22;28914;48.722;9.332;2023-03-08T23:24:08;13.90;79.30
43320;DHT22;28914;48.722;9.332;2023-03-08T23:29:27;13.90;79.20
43320;DHT22;28914;48.722;9.332;2023-03-08T23:34:46;13.80;79.40
43320;DHT22;28914;48.722;9.332;2023-03-08T23:40:10;13.80;79.50
43320;DHT22;28914;48.722;9.332;2023-03-08T23:45:29;13.70;79.60
43320;DHT22;28914;48.722;9.332;2023-03-08T23:50:48;13.70;79.80
43320;DHT22;28914;48.722;9.332;2023-03-08T23:56:23;13.60;80.30
